Time;durP1;ratioP1;P1;durP2;ratioP2;P2;SDS_P1;SDS_P2;PMS_P1;PMS_P2;Temp;Humidity;BMP_temperature;BMP_pressure;BME280_temperature;BME280_humidity;BME280_pressure;Samples;Min_cycle;Max_cycle;Signal;HPM_P1;HPM_P2
2023/12/23 00:03:01;;;;;;;2.00;0.60;;;;;;;2.26;100.00;97857.70;180142;1262;59801;-62
2023/12/23 00:07:06;;;;;;;2.50;0.80;;;;;;;2.07;100.00;97873.33;180231;1260;43737;-62
2023/12/23 00:11:09;;;;;;;5.20;1.10;;;;;;;2.06;100.00;97879.71;179934;1260;46001;-63
2023/12/23 00:15:13;;;;;;;0.50;0.40;;;;;;;1.90;100.00;97876.66;179710;1262;45967;-64
2023/12/23 00:19:16;;;;;;;2.20;1.20;;;;;;;1.80;100.00;97835.02;179787;1262;45930;-63
2023/12/23 00:23:24;;;;;;;2.20;0.70;;;;;;;1.68;100.00;97865.40;179797;1264;58396;-63
2023/12/23 00:27:28;;;;;;;1.70;0.90;;;;;;;1.44;100.00;97887.44;179890;1261;45329;-63
2023/12/23 00:31:32;;;;;;;1.80;0.90;;;;;;;1.44;100.00;97900.70;179689;1260;46024;-62
2023/12/23 00:35:37;;;;;;;2.50;1.10;;;;;;;1.48;100.00;97901.09;179785;1262;46086;-62
2023/12/23 00:39:40;;;;;;;1.00;0.60;;;;;;;1.56;100.00;97890.47;179799;1263;43665;-63
2023/12/23 00:43:44;;;;;;;0.40;0.10;;;;;;;1.63;100.00;97901.66;179841;1260;57952;-63
2023/12/23 00:47:47;;;;;;;0.30;0.30;;;;;;;1.68;100.00;97896.15;179903;1262;46168;-63
2023/12/23 00:51:52;;;;;;;0.90;0.40;;;;;;;1.74;100.00;97906.45;179863;1261;45770;-63
2023/12/23 00:55:55;;;;;;;1.10;0.40;;;;;;;1.80;100.00;97929.74;179877;1261;43520;-63
2023/12/23 00:59:59;;;;;;;1.20;1.00;;;;;;;1.79;100.00;97936.31;179896;1261;45653;-63
2023/12/23 01:04:05;;;;;;;1.40;1.30;;;;;;;1.77;100.00;97942.38;179958;1262;58433;-63
2023/12/23 01:08:09;;;;;;;1.20;0.90;;;;;;;1.77;100.00;97943.44;179822;1261;45921;-63
2023/12/23 01:12:14;;;;;;;0.70;0.50;;;;;;;1.74;100.00;97961.52;179811;1262;45490;-63
2023/12/23 01:16:18;;;;;;;0.40;0.40;;;;;;;1.70;100.00;97961.00;179926;1262;45017;-63
2023/12/23 01:20:21;;;;;;;1.30;0.70;;;;;;;1.69;100.00;97960.85;179839;1262;43812;-63
2023/12/23 01:24:25;;;;;;;0.20;0.20;;;;;;;1.64;100.00;97967.27;179802;1262;58172;-63
2023/12/23 01:28:29;;;;;;;0.70;0.40;;;;;;;1.65;100.00;97979.05;179974;1260;44963;-63
2023/12/23 01:32:34;;;;;;;1.20;0.30;;;;;;;1.65;100.00;97978.15;180056;1262;43706;-63
2023/12/23 01:36:39;;;;;;;0.20;0.20;;;;;;;1.70;100.00;97984.23;180190;1262;43971;-63
2023/12/23 01:40:42;;;;;;;0.30;0.20;;;;;;;1.72;100.00;97996.85;180038;1262;43783;-63
2023/12/23 01:44:47;;;;;;;0.70;0.30;;;;;;;1.76;100.00;98006.95;179888;1262;58504;-63
2023/12/23 01:48:56;;;;;;;0.20;0.20;;;;;;;1.84;100.00;98024.45;179789;1261;46066;-63
2023/12/23 01:53:01;;;;;;;0.40;0.30;;;;;;;1.88;100.00;98026.14;179827;1262;45898;-64
2023/12/23 01:57:05;;;;;;;0.20;0.20;;;;;;;1.89;100.00;98034.98;179989;1262;46010;-63
2023/12/23 02:01:11;;;;;;;0.50;0.40;;;;;;;1.89;100.00;98045.06;179848;1262;43545;-63
2023/12/23 02:06:08;;;;;;;0.90;0.20;;;;;;;1.86;100.00;98044.45;179874;1261;58469;-63
2023/12/23 02:10:14;;;;;;;0.00;0.00;;;;;;;1.80;100.00;98048.92;179889;1261;43759;-63
2023/12/23 02:14:44;;;;;;;0.40;0.40;;;;;;;1.82;100.00;98062.61;179670;1262;46037;-63
2023/12/23 02:18:48;;;;;;;1.30;0.90;;;;;;;1.77;100.00;98062.34;179756;1262;44946;-63
2023/12/23 02:22:53;;;;;;;0.90;0.70;;;;;;;1.78;100.00;98071.80;179828;1262;46097;-63
2023/12/23 02:27:04;;;;;;;;;;;;;;;1.82;100.00;98082.84;179862;1263;60096;-63
2023/12/23 02:31:09;;;;;;;0.70;0.70;;;;;;;1.82;100.00;98094.56;179856;1262;43584;-63
2023/12/23 02:35:12;;;;;;;1.20;0.90;;;;;;;1.86;100.00;98101.80;180066;1264;43788;-63
2023/12/23 02:39:19;;;;;;;0.60;0.20;;;;;;;1.88;100.00;98101.94;180205;1262;45908;-63
2023/12/23 02:43:55;;;;;;;0.40;0.30;;;;;;;1.97;100.00;98106.11;179980;1261;44726;-63
2023/12/23 02:47:58;;;;;;;1.30;0.60;;;;;;;1.93;100.00;98116.56;179850;1260;58411;-63
2023/12/23 02:52:03;;;;;;;0.40;0.20;;;;;;;1.91;100.00;98112.71;179975;1260;45899;-63
2023/12/23 02:56:07;;;;;;;1.20;0.50;;;;;;;1.91;100.00;98119.17;178623;1260;1761043;-64
2023/12/23 03:00:12;;;;;;;0.40;0.30;;;;;;;1.87;100.00;98132.11;179934;1260;43586;-63
2023/12/23 03:04:16;;;;;;;1.90;0.20;;;;;;;1.88;100.00;98135.52;180032;1260;43581;-63
2023/12/23 03:08:19;;;;;;;1.00;0.50;;;;;;;1.88;100.00;98156.18;179852;1260;57935;-63
2023/12/23 03:12:22;;;;;;;0.30;0.20;;;;;;;1.86;100.00;98177.45;179912;1261;45977;-63
2023/12/23 03:16:33;;;;;;;1.10;0.90;;;;;;;1.92;100.00;98179.08;179915;1260;45974;-63
2023/12/23 03:20:37;;;;;;;1.20;0.30;;;;;;;1.92;100.00;98195.51;180037;1263;45162;-64
2023/12/23 03:24:40;;;;;;;1.60;0.90;;;;;;;1.89;100.00;98208.11;179890;1261;44980;-63
2023/12/23 03:28:43;;;;;;;0.50;0.50;;;;;;;1.87;100.00;98216.54;180050;1260;59517;-63
2023/12/23 03:32:52;;;;;;;0.30;0.30;;;;;;;1.84;100.00;98223.10;179915;1264;43730;-63
2023/12/23 03:36:55;;;;;;;0.40;0.20;;;;;;;1.85;100.00;98238.33;179948;1264;43625;-63
2023/12/23 03:40:59;;;;;;;0.20;0.10;;;;;;;1.85;100.00;98255.48;179983;1260;45904;-63
2023/12/23 03:45:02;;;;;;;0.50;0.20;;;;;;;1.90;100.00;98265.39;180016;1260;44885;-63
2023/12/23 03:49:11;;;;;;;0.40;0.30;;;;;;;1.94;100.00;98282.45;179981;1260;58170;-63
2023/12/23 03:53:14;;;;;;;3.40;0.80;;;;;;;1.88;100.00;98270.45;179959;1261;46134;-64
2023/12/23 03:57:19;;;;;;;0.30;0.20;;;;;;;1.75;100.00;98278.46;179870;1261;45914;-63
2023/12/23 04:01:28;;;;;;;0.50;0.30;;;;;;;1.67;100.00;98292.86;179870;1260;46162;-63
2023/12/23 04:05:32;;;;;;;0.70;0.40;;;;;;;1.63;100.00;98304.04;179931;1260;46072;-64
2023/12/23 04:09:35;;;;;;;0.20;0.20;;;;;;;1.62;100.00;98307.91;180169;1260;58298;-62
2023/12/23 04:13:38;;;;;;;8.10;0.50;;;;;;;1.64;100.00;98349.73;180124;1261;45886;-63
2023/12/23 04:17:54;;;;;;;0.30;0.30;;;;;;;1.69;100.00;98364.75;179934;1260;46008;-63
2023/12/23 04:21:58;;;;;;;0.40;0.30;;;;;;;1.67;100.00;98368.86;179915;1260;46029;-63
2023/12/23 04:26:15;;;;;;;0.50;0.40;;;;;;;1.63;100.00;98374.60;179940;1260;43630;-63
2023/12/23 04:30:19;;;;;;;;;;;;;;;1.56;100.00;98366.90;179969;1260;58414;-63
2023/12/23 04:34:22;;;;;;;1.00;0.60;;;;;;;1.64;100.00;98369.79;180046;1260;46143;-64
2023/12/23 04:38:26;;;;;;;0.70;0.20;;;;;;;1.56;100.00;98388.75;180094;1260;46376;-64
2023/12/23 04:42:29;;;;;;;3.50;0.40;;;;;;;1.53;100.00;98397.19;179956;1260;46031;-64
2023/12/23 04:46:32;;;;;;;0.60;0.30;;;;;;;1.43;100.00;98410.84;179914;1263;44896;-64
2023/12/23 04:50:35;;;;;;;1.70;0.80;;;;;;;1.40;100.00;98421.02;179935;1260;58441;-64
2023/12/23 04:54:39;;;;;;;0.20;0.20;;;;;;;1.37;100.00;98420.52;179943;1260;45930;-64
2023/12/23 04:58:42;;;;;;;0.50;0.50;;;;;;;1.35;100.00;98429.95;179923;1260;44644;-64
2023/12/23 05:02:46;;;;;;;0.30;0.10;;;;;;;1.38;100.00;98432.17;179820;1262;43910;-63
2023/12/23 05:06:52;;;;;;;1.30;0.60;;;;;;;1.41;100.00;98448.23;179909;1260;45945;-63
2023/12/23 05:10:55;;;;;;;4.10;1.00;;;;;;;1.44;100.00;98447.11;179910;1260;58516;-63
2023/12/23 05:15:22;;;;;;;0.40;0.40;;;;;;;1.49;100.00;98450.05;180000;1261;43775;-63
2023/12/23 05:19:25;;;;;;;;;;;;;;;1.48;100.00;98467.22;179940;1260;46541;-63
2023/12/23 05:23:29;;;;;;;1.80;1.00;;;;;;;1.54;100.00;98473.77;180115;1260;45725;-63
2023/12/23 05:27:35;;;;;;;1.30;0.90;;;;;;;1.52;100.00;98489.45;179977;1260;45997;-63
2023/12/23 05:31:38;;;;;;;1.10;0.80;;;;;;;1.52;100.00;98492.44;179881;1260;58494;-63
2023/12/23 05:35:43;;;;;;;2.80;2.60;;;;;;;1.56;100.00;98503.04;179977;1260;43892;-64
2023/12/23 05:39:59;;;;;;;2.40;0.90;;;;;;;1.45;100.00;98520.91;180163;1260;43533;-63
2023/12/23 05:44:03;;;;;;;4.90;1.30;;;;;;;1.36;100.00;98517.02;180361;1260;45903;-63
2023/12/23 05:48:11;;;;;;;2.90;1.20;;;;;;;1.30;100.00;98529.51;180114;1260;44736;-63
2023/12/23 05:53:12;;;;;;;0.90;0.70;;;;;;;1.34;100.00;98518.92;180098;1260;58403;-63
2023/12/23 05:57:16;;;;;;;2.30;0.80;;;;;;;1.25;100.00;98527.58;179944;1261;46048;-63
2023/12/23 06:01:20;;;;;;;3.20;0.70;;;;;;;1.15;100.00;98523.37;179980;1260;43633;-63
2023/12/23 06:05:24;;;;;;;0.60;0.60;;;;;;;1.04;100.00;98532.77;179760;1260;45969;-63
2023/12/23 06:09:28;;;;;;;1.70;0.90;;;;;;;1.07;100.00;98532.31;179962;1260;43597;-63
2023/12/23 06:13:36;;;;;;;1.10;1.00;;;;;;;1.04;100.00;98535.34;179976;1260;58194;-63
2023/12/23 06:17:41;;;;;;;2.30;0.80;;;;;;;1.06;100.00;98523.88;180083;1260;45913;-63
2023/12/23 06:22:10;;;;;;;2.80;0.80;;;;;;;1.18;100.00;98518.46;179914;1260;46021;-63
2023/12/23 06:26:16;;;;;;;1.00;0.70;;;;;;;1.25;100.00;98513.92;180002;1260;44834;-63
2023/12/23 06:30:19;;;;;;;4.30;1.50;;;;;;;1.39;100.00;98508.27;179893;1260;46131;-63
2023/12/23 06:34:23;;;;;;;6.80;1.50;;;;;;;1.47;100.00;98513.11;179914;1260;58900;-63
2023/12/23 06:38:26;;;;;;;2.30;0.60;;;;;;;1.50;100.00;98520.86;179905;1260;45988;-63
2023/12/23 06:42:31;;;;;;;2.90;0.80;;;;;;;1.47;100.00;98535.61;180469;1260;43784;-63
2023/12/23 06:46:34;;;;;;;3.20;1.40;;;;;;;1.49;100.00;98529.38;180259;1260;44956;-62
2023/12/23 06:50:41;;;;;;;4.40;0.70;;;;;;;1.58;100.00;98531.20;180044;1260;46046;-63
2023/12/23 06:54:44;;;;;;;1.10;0.60;;;;;;;1.66;100.00;98530.63;179988;1260;58738;-63
2023/12/23 06:58:50;;;;;;;3.70;2.00;;;;;;;1.79;100.00;98523.20;179839;1260;45968;-63
2023/12/23 07:02:54;;;;;;;4.80;2.20;;;;;;;1.84;99.89;98520.04;179880;1260;45925;-63
2023/12/23 07:06:57;;;;;;;8.30;3.60;;;;;;;1.95;99.51;98518.84;179893;1260;45942;-63
2023/12/23 07:11:01;;;;;;;8.80;2.30;;;;;;;2.06;99.40;98522.63;179961;1260;45987;-63
2023/12/23 07:15:09;;;;;;;7.60;1.90;;;;;;;2.09;98.27;98508.59;180269;1259;57475;-63
2023/12/23 07:19:14;;;;;;;2.20;1.00;;;;;;;2.16;98.33;98511.05;165251;1259;89306;-63
2023/12/23 07:23:17;;;;;;;10.70;2.30;;;;;;;2.20;97.49;98503.89;180273;1259;44693;-63
2023/12/23 07:27:20;;;;;;;3.60;1.10;;;;;;;2.29;97.21;98496.58;180165;1259;43869;-63
2023/12/23 07:31:24;;;;;;;6.60;1.10;;;;;;;2.32;96.62;98489.54;180170;1259;44278;-63
2023/12/23 07:35:27;;;;;;;5.90;1.40;;;;;;;2.37;96.05;98492.48;180089;1259;58507;-63
2023/12/23 07:39:32;;;;;;;9.10;2.50;;;;;;;2.43;96.05;98496.41;180183;1261;44841;-63
2023/12/23 07:43:36;;;;;;;2.40;1.60;;;;;;;2.45;95.63;98487.52;180139;1259;45263;-63
2023/12/23 07:47:42;;;;;;;2.30;1.60;;;;;;;2.46;95.55;98483.59;180131;1263;45035;-63
2023/12/23 07:51:49;;;;;;;6.60;2.00;;;;;;;2.47;95.24;98479.65;180037;1259;44676;-63
2023/12/23 07:55:52;;;;;;;8.50;1.80;;;;;;;2.50;95.83;98485.35;180184;1259;57470;-63
2023/12/23 07:59:58;;;;;;;4.00;1.30;;;;;;;2.52;95.98;98479.24;180053;1259;46162;-63
2023/12/23 08:04:01;;;;;;;2.80;1.90;;;;;;;2.53;95.84;98477.81;180215;1259;43543;-63
2023/12/23 08:08:09;;;;;;;5.80;1.70;;;;;;;2.59;96.42;98475.75;180264;1259;46132;-63
2023/12/23 08:12:39;;;;;;;4.70;2.30;;;;;;;2.61;96.50;98464.20;179980;1263;43909;-64
2023/12/23 08:16:42;;;;;;;11.80;2.90;;;;;;;2.63;96.79;98465.67;180348;1259;58439;-63
2023/12/23 08:20:46;;;;;;;6.50;2.60;;;;;;;2.65;97.13;98465.13;179898;1258;97312;-88
2023/12/23 08:24:50;;;;;;;9.60;2.20;;;;;;;2.67;97.89;98466.19;180028;1259;44860;-85
2023/12/23 08:28:55;;;;;;;5.20;2.20;;;;;;;2.71;98.32;98452.94;180234;1259;44730;-90
2023/12/23 08:33:03;;;;;;;8.10;2.40;;;;;;;2.78;98.17;98457.34;179079;1259;46078;-89
2023/12/23 08:37:07;;;;;;;6.90;2.80;;;;;;;2.82;98.30;98459.64;179043;1259;58720;-88
2023/12/23 08:41:10;;;;;;;7.70;3.70;;;;;;;2.86;98.41;98459.48;178642;1259;44382;-85
2023/12/23 08:45:14;;;;;;;6.80;2.60;;;;;;;2.90;99.30;98450.39;179074;1259;45971;-86
2023/12/23 08:49:18;;;;;;;11.80;4.70;;;;;;;2.96;99.24;98444.13;178606;1259;46001;-86
2023/12/23 08:53:21;;;;;;;4.60;3.10;;;;;;;3.02;99.44;98445.10;178332;1258;46207;-87
2023/12/23 08:57:25;;;;;;;5.80;2.90;;;;;;;3.06;99.68;98454.27;177806;1259;58243;-87
2023/12/23 09:01:29;;;;;;;20.70;3.20;;;;;;;3.11;99.95;98461.34;177793;1259;46005;-84
2023/12/23 09:05:33;;;;;;;9.30;5.20;;;;;;;3.21;99.96;98455.27;178140;1259;45772;-87
2023/12/23 09:09:40;;;;;;;10.60;2.50;;;;;;;3.27;100.00;98458.16;178361;1259;46035;-88
2023/12/23 09:13:43;;;;;;;12.50;4.40;;;;;;;3.29;100.00;98456.21;179364;1259;44242;-87
2023/12/23 09:17:47;;;;;;;9.20;2.90;;;;;;;3.29;100.00;98449.73;178572;1260;58316;-86
2023/12/23 09:21:51;;;;;;;7.30;3.10;;;;;;;3.35;100.00;98452.63;177737;1259;46107;-86
2023/12/23 09:25:55;;;;;;;10.60;2.50;;;;;;;3.39;100.00;98454.09;177943;1260;44599;-87
2023/12/23 09:29:59;;;;;;;1.50;1.20;;;;;;;3.37;100.00;98454.60;178725;1259;46015;-87
2023/12/23 09:34:03;;;;;;;8.20;2.10;;;;;;;3.36;100.00;98455.30;178152;1258;45991;-86
2023/12/23 09:38:07;;;;;;;4.80;1.60;;;;;;;3.38;100.00;98452.89;179118;1258;59263;-87
2023/12/23 09:42:11;;;;;;;5.50;2.50;;;;;;;3.41;100.00;98455.46;178939;1263;44440;-86
2023/12/23 09:46:16;;;;;;;8.10;1.90;;;;;;;3.37;100.00;98451.44;179265;1259;44788;-88
2023/12/23 09:50:20;;;;;;;2.30;1.60;;;;;;;3.32;100.00;98452.51;179192;1258;45661;-86
2023/12/23 09:54:27;;;;;;;6.20;2.40;;;;;;;3.28;100.00;98458.25;179038;1262;45981;-87
2023/12/23 09:58:34;;;;;;;2.80;1.50;;;;;;;3.24;100.00;98450.84;179466;1259;58109;-89
2023/12/23 10:02:43;;;;;;;4.30;2.40;;;;;;;3.22;100.00;98442.92;179992;1259;44725;-86
2023/12/23 10:06:56;;;;;;;4.80;1.40;;;;;;;3.26;100.00;98438.09;180829;1257;90309;-63
2023/12/23 10:11:02;;;;;;;6.00;2.00;;;;;;;3.26;100.00;98438.07;180642;1260;46422;-87
2023/12/23 10:15:08;;;;;;;3.30;1.60;;;;;;;3.27;100.00;98434.12;179454;1260;44039;-85
2023/12/23 10:19:13;;;;;;;6.70;2.00;;;;;;;3.33;100.00;98432.27;180282;1260;58342;-87
2023/12/23 10:23:16;;;;;;;1.60;0.90;;;;;;;3.32;100.00;98422.52;180345;1260;44744;-82
2023/12/23 10:27:21;;;;;;;6.90;1.40;;;;;;;3.28;100.00;98420.95;179961;1260;44534;-85
2023/12/23 10:31:33;;;;;;;4.90;1.20;;;;;;;3.30;100.00;98430.77;179520;1260;45182;-84
2023/12/23 10:35:45;;;;;;;2.70;0.70;;;;;;;3.26;100.00;98420.73;179890;1260;45986;-88
2023/12/23 10:40:26;;;;;;;1.20;0.90;;;;;;;3.19;100.00;98414.14;179533;1260;59271;-84
2023/12/23 10:44:33;;;;;;;3.60;1.40;;;;;;;3.17;100.00;98424.84;178166;1260;46444;-87
2023/12/23 10:48:39;;;;;;;1.50;1.10;;;;;;;3.05;100.00;98420.35;178991;1260;45981;-86
2023/12/23 10:52:46;;;;;;;1.70;1.40;;;;;;;2.98;100.00;98427.73;178397;1260;45478;-88
2023/12/23 10:56:53;;;;;;;2.50;2.00;;;;;;;2.94;100.00;98419.23;178585;1260;44426;-86
2023/12/23 11:00:59;;;;;;;4.10;2.50;;;;;;;2.92;100.00;98422.75;178732;1260;59302;-87
2023/12/23 11:05:06;;;;;;;4.10;2.50;;;;;;;2.94;100.00;98429.81;179502;1262;46078;-88
2023/12/23 11:09:12;;;;;;;6.40;2.40;;;;;;;2.97;100.00;98430.44;180374;1261;44153;-89
2023/12/23 11:13:18;;;;;;;1.50;1.20;;;;;;;2.94;100.00;98423.79;178790;1264;45820;-86
2023/12/23 11:17:24;;;;;;;0.90;0.60;;;;;;;2.88;100.00;98420.79;178303;1262;46000;-85
2023/12/23 11:21:29;;;;;;;2.50;0.70;;;;;;;2.83;100.00;98415.09;177999;1261;59250;-86
2023/12/23 11:25:38;;;;;;;1.70;1.00;;;;;;;2.79;100.00;98414.53;178590;1261;46072;-90
2023/12/23 11:29:42;;;;;;;2.80;1.50;;;;;;;2.74;100.00;98406.88;178338;1262;46002;-85
2023/12/23 11:33:46;;;;;;;4.70;2.30;;;;;;;2.68;100.00;98407.01;178139;1261;46131;-89
2023/12/23 11:37:57;;;;;;;6.70;3.20;;;;;;;2.33;100.00;98420.05;178155;1264;44772;-89
2023/12/23 11:42:04;;;;;;;7.90;3.30;;;;;;;2.15;100.00;98428.73;178908;1261;59457;-87
2023/12/23 11:46:12;;;;;;;1.90;1.70;;;;;;;2.05;100.00;98431.08;179463;1262;45919;-87
2023/12/23 11:50:19;;;;;;;2.40;1.70;;;;;;;2.03;100.00;98431.89;179946;1261;45914;-88
2023/12/23 11:54:24;;;;;;;2.00;1.20;;;;;;;1.94;100.00;98430.15;180025;1261;45749;-85
2023/12/23 11:58:31;;;;;;;6.40;2.50;;;;;;;1.82;100.00;98419.45;179527;1262;44778;-83
2023/12/23 12:02:42;;;;;;;2.00;1.00;;;;;;;1.76;100.00;98413.63;179627;1261;58990;-88
2023/12/23 12:06:48;;;;;;;3.10;2.10;;;;;;;1.71;100.00;98415.25;179816;1260;46246;-87
2023/12/23 12:10:57;;;;;;;4.50;2.10;;;;;;;1.70;100.00;98411.31;179687;1263;45972;-80
2023/12/23 12:15:07;;;;;;;7.90;2.50;;;;;;;1.72;100.00;98415.35;179502;1260;46008;-85
2023/12/23 12:19:13;;;;;;;4.90;3.50;;;;;;;1.68;100.00;98410.74;178777;1262;46117;-87
2023/12/23 12:23:16;;;;;;;5.50;4.00;;;;;;;1.67;100.00;98409.79;178716;1261;59355;-87
2023/12/23 12:27:20;;;;;;;11.40;4.40;;;;;;;1.70;100.00;98406.08;179432;1263;45966;-86
2023/12/23 12:31:24;;;;;;;6.30;5.70;;;;;;;1.69;100.00;98413.82;179332;1260;44586;-85
2023/12/23 12:35:29;;;;;;;5.90;4.40;;;;;;;1.68;100.00;98409.01;179467;1260;44101;-87
2023/12/23 12:39:33;;;;;;;6.30;3.60;;;;;;;1.68;100.00;98408.33;177947;1260;46029;-89
2023/12/23 12:43:38;;;;;;;6.70;3.00;;;;;;;1.69;100.00;98408.57;178278;1261;58528;-85
2023/12/23 12:47:42;;;;;;;4.20;2.80;;;;;;;1.66;100.00;98414.19;178237;1261;45993;-84
2023/12/23 12:51:45;;;;;;;7.50;3.70;;;;;;;1.68;100.00;98412.70;179384;1261;44875;-84
2023/12/23 12:55:48;;;;;;;5.20;2.90;;;;;;;1.65;100.00;98417.42;178623;1260;44839;-87
2023/12/23 12:59:53;;;;;;;3.40;1.80;;;;;;;1.65;100.00;98421.27;178902;1262;45994;-87
2023/12/23 13:03:58;;;;;;;5.10;2.40;;;;;;;1.64;100.00;98426.27;179676;1261;59265;-81
2023/12/23 13:08:04;;;;;;;5.50;4.00;;;;;;;1.67;100.00;98426.20;179986;1260;44571;-87
2023/12/23 13:12:09;;;;;;;4.00;2.90;;;;;;;1.62;100.00;98433.25;180526;1260;44407;-82
2023/12/23 13:16:13;;;;;;;4.20;2.80;;;;;;;1.60;100.00;98442.58;180672;1260;44789;-79
2023/12/23 13:25:31;;;;;;;5.60;3.90;;;;;;;1.64;100.00;98453.00;180123;1263;91773;-65
2023/12/23 13:29:35;;;;;;;8.60;3.90;;;;;;;1.70;100.00;98461.84;180560;1264;44721;-80
2023/12/23 13:33:44;;;;;;;5.00;4.50;;;;;;;1.68;100.00;98463.52;179598;1261;89954;-65
2023/12/23 13:37:49;;;;;;;6.00;4.00;;;;;;;1.65;100.00;98467.95;179379;1263;44390;-64
2023/12/23 13:41:52;;;;;;;6.60;5.80;;;;;;;1.63;100.00;98475.45;179487;1262;44827;-65
2023/12/23 13:45:56;;;;;;;6.80;4.70;;;;;;;1.62;100.00;98477.79;179557;1263;58408;-64
2023/12/23 13:50:00;;;;;;;4.90;4.30;;;;;;;1.57;100.00;98484.08;179532;1264;43851;-66
2023/12/23 13:54:07;;;;;;;5.90;3.90;;;;;;;1.70;100.00;98488.20;179615;1264;46060;-65
2023/12/23 13:58:11;;;;;;;5.60;3.30;;;;;;;1.65;100.00;98492.23;179578;1264;45041;-66
2023/12/23 14:02:14;;;;;;;4.60;2.70;;;;;;;1.74;100.00;98503.64;179605;1264;44788;-65
2023/12/23 14:06:17;;;;;;;6.60;2.80;;;;;;;1.79;100.00;98510.95;179305;1263;58659;-65
2023/12/23 14:10:36;;;;;;;6.90;4.80;;;;;;;1.80;100.00;98516.30;179455;1263;44673;-66
2023/12/23 14:14:40;;;;;;;12.00;6.20;;;;;;;1.93;100.00;98518.36;179401;1263;43837;-63
2023/12/23 14:18:43;;;;;;;6.80;6.10;;;;;;;1.95;100.00;98527.26;179498;1263;45948;-64
2023/12/23 14:22:47;;;;;;;7.50;6.10;;;;;;;1.91;100.00;98536.13;179556;1264;43822;-63
2023/12/23 14:27:19;;;;;;;10.60;7.70;;;;;;;1.92;100.00;98533.59;179367;1264;59829;-64
2023/12/23 14:31:24;;;;;;;7.90;4.50;;;;;;;1.97;100.00;98538.88;179560;1263;45997;-64
2023/12/23 14:35:32;;;;;;;4.30;3.90;;;;;;;1.98;100.00;98550.33;179531;1264;44342;-64
2023/12/23 14:39:39;;;;;;;6.60;3.70;;;;;;;1.95;100.00;98555.42;179304;1264;43796;-63
2023/12/23 14:43:43;;;;;;;7.50;4.40;;;;;;;1.99;100.00;98558.11;179614;1264;46004;-64
2023/12/23 14:48:17;;;;;;;5.00;3.60;;;;;;;2.00;100.00;98562.38;179493;1263;58985;-65
2023/12/23 14:52:20;;;;;;;7.10;5.00;;;;;;;2.05;100.00;98573.06;179496;1263;45964;-65
2023/12/23 14:56:54;;;;;;;5.50;4.00;;;;;;;2.05;100.00;98584.03;172094;1263;10173137;-65
2023/12/23 15:00:58;;;;;;;5.10;3.30;;;;;;;2.07;100.00;98581.61;179485;1263;44415;-64
2023/12/23 15:05:02;;;;;;;4.70;3.50;;;;;;;1.98;100.00;98589.45;179524;1264;46083;-64
2023/12/23 15:09:07;;;;;;;8.40;5.50;;;;;;;1.92;100.00;98592.55;179514;1263;46685;-64
2023/12/23 15:13:11;;;;;;;5.90;4.80;;;;;;;1.85;100.00;98602.26;179594;1264;44957;-65
2023/12/23 15:17:15;;;;;;;6.40;5.50;;;;;;;1.84;100.00;98606.38;179638;1263;58441;-65
2023/12/23 15:21:21;;;;;;;6.20;5.30;;;;;;;1.96;100.00;98607.60;179590;1263;46068;-64
2023/12/23 15:25:25;;;;;;;6.20;4.40;;;;;;;2.03;100.00;98612.34;179544;1264;45158;-64
2023/12/23 15:29:28;;;;;;;7.00;5.10;;;;;;;2.09;100.00;98621.01;179418;1263;43602;-64
2023/12/23 15:33:31;;;;;;;9.50;5.80;;;;;;;2.21;100.00;98625.23;179386;1264;45988;-64
2023/12/23 15:37:35;;;;;;;4.60;4.30;;;;;;;2.26;100.00;98629.92;179755;1263;57270;-67
2023/12/23 15:41:42;;;;;;;5.60;3.60;;;;;;;2.26;100.00;98629.19;179556;1263;43757;-64
2023/12/23 15:45:45;;;;;;;6.70;4.10;;;;;;;2.30;100.00;98632.10;179635;1263;45915;-65
2023/12/23 15:49:49;;;;;;;2.90;2.50;;;;;;;2.28;100.00;98632.25;179521;1263;43805;-64
2023/12/23 15:53:52;;;;;;;3.40;3.10;;;;;;;2.21;100.00;98641.15;179520;1263;44883;-60
2023/12/23 15:58:48;;;;;;;5.20;4.20;;;;;;;2.17;100.00;98655.96;179515;1264;58177;-64
2023/12/23 16:02:56;;;;;;;;;;;;;;;2.08;100.00;98674.92;179474;1263;44590;-66
2023/12/23 16:07:00;;;;;;;4.40;2.40;;;;;;;2.12;100.00;98671.33;179422;1263;45857;-65
2023/12/23 16:11:03;;;;;;;7.10;4.00;;;;;;;2.17;100.00;98677.30;179530;1264;46024;-64
2023/12/23 16:15:07;;;;;;;6.00;4.50;;;;;;;2.16;100.00;98676.96;179485;1263;43785;-64
2023/12/23 16:19:11;;;;;;;5.20;3.70;;;;;;;2.17;100.00;98681.83;179477;1264;58302;-64
2023/12/23 16:23:25;;;;;;;3.40;2.90;;;;;;;2.17;100.00;98687.05;179519;1263;45148;-64
2023/12/23 16:27:29;;;;;;;4.20;2.20;;;;;;;2.17;100.00;98689.73;179406;1263;43669;-65
2023/12/23 16:31:32;;;;;;;4.90;2.70;;;;;;;2.18;100.00;98690.48;179397;1263;45973;-63
2023/12/23 16:35:35;;;;;;;2.30;2.10;;;;;;;2.26;100.00;98695.49;179475;1263;45998;-64
2023/12/23 16:39:41;;;;;;;4.50;2.40;;;;;;;2.30;100.00;98706.27;179423;1263;59142;-63
2023/12/23 16:43:45;;;;;;;4.40;2.50;;;;;;;2.37;100.00;98712.23;179383;1263;46436;-64
2023/12/23 16:47:48;;;;;;;2.60;2.30;;;;;;;2.44;100.00;98712.09;179563;1266;45259;-64
2023/12/23 16:51:53;;;;;;;5.80;2.60;;;;;;;2.47;100.00;98708.15;179478;1264;45973;-64
2023/12/23 16:55:56;;;;;;;3.70;2.70;;;;;;;2.51;100.00;98724.16;179630;1263;46003;-64
2023/12/23 17:00:07;;;;;;;4.50;2.60;;;;;;;2.54;100.00;98732.31;179489;1263;58466;-64
2023/12/23 17:04:11;;;;;;;6.80;3.70;;;;;;;2.57;100.00;98728.47;179500;1264;45900;-64
2023/12/23 17:08:15;;;;;;;5.30;2.60;;;;;;;2.57;100.00;98739.63;179634;1263;46066;-64
2023/12/23 17:12:18;;;;;;;2.80;1.70;;;;;;;2.62;100.00;98745.73;179508;1263;44772;-64
2023/12/23 17:16:22;;;;;;;2.60;2.10;;;;;;;2.63;100.00;98749.84;179503;1264;46014;-63
2023/12/23 17:20:25;;;;;;;2.20;2.00;;;;;;;2.60;100.00;98759.72;179379;1263;58440;-63
2023/12/23 17:24:54;;;;;;;8.40;2.60;;;;;;;2.58;100.00;98758.11;179505;1263;46022;-63
2023/12/23 17:28:58;;;;;;;8.20;3.30;;;;;;;2.59;100.00;98763.83;179520;1264;44728;-64
2023/12/23 17:33:02;;;;;;;5.10;3.30;;;;;;;2.61;100.00;98763.34;179451;1263;43571;-65
2023/12/23 17:37:06;;;;;;;5.50;3.50;;;;;;;2.58;100.00;98761.25;179487;1264;46014;-64
2023/12/23 17:41:09;;;;;;;8.20;2.80;;;;;;;2.63;100.00;98763.84;179474;1263;58432;-64
2023/12/23 17:45:13;;;;;;;4.80;2.60;;;;;;;2.70;100.00;98770.05;179492;1263;46060;-64
2023/12/23 17:49:17;;;;;;;7.10;2.90;;;;;;;2.67;100.00;98777.59;179548;1263;45983;-63
2023/12/23 17:53:30;;;;;;;4.30;2.40;;;;;;;2.68;100.00;98774.03;179598;1263;45898;-64
2023/12/23 17:57:35;;;;;;;3.80;2.00;;;;;;;2.76;100.00;98783.92;179371;1265;44826;-63
2023/12/23 18:01:39;;;;;;;4.20;2.50;;;;;;;2.79;100.00;98784.98;179526;1263;58769;-64
2023/12/23 18:05:42;;;;;;;7.70;4.40;;;;;;;2.79;100.00;98786.88;179402;1263;46179;-65
2023/12/23 18:09:48;;;;;;;4.30;3.70;;;;;;;2.83;100.00;98792.38;179394;1264;44625;-65
2023/12/23 18:13:52;;;;;;;5.00;3.80;;;;;;;2.87;100.00;98798.73;179488;1264;44195;-66
2023/12/23 18:17:57;;;;;;;8.70;3.30;;;;;;;2.92;100.00;98797.50;179357;1264;43839;-67
2023/12/23 18:22:00;;;;;;;4.70;4.10;;;;;;;2.94;100.00;98797.65;179431;1267;58477;-67
2023/12/23 18:26:09;;;;;;;8.40;4.20;;;;;;;2.95;100.00;98789.02;179428;1263;45914;-67
2023/12/23 18:30:13;;;;;;;7.90;4.10;;;;;;;3.01;100.00;98791.42;179417;1263;43787;-67
2023/12/23 18:34:16;;;;;;;6.00;4.50;;;;;;;3.03;100.00;98793.39;179394;1263;46079;-68
2023/12/23 18:38:20;;;;;;;5.40;3.80;;;;;;;3.04;100.00;98800.50;179603;1263;43566;-67
2023/12/23 18:42:25;;;;;;;7.50;3.70;;;;;;;3.03;100.00;98803.52;179477;1263;58439;-67
2023/12/23 18:46:30;;;;;;;3.70;2.80;;;;;;;3.05;100.00;98805.29;179318;1263;45979;-66
2023/12/23 18:50:36;;;;;;;4.20;3.10;;;;;;;3.06;100.00;98813.52;179450;1264;43722;-68
2023/12/23 18:54:40;;;;;;;4.00;3.60;;;;;;;3.12;100.00;98809.47;179247;1263;45823;-67
2023/12/23 18:58:44;;;;;;;6.50;5.70;;;;;;;3.15;100.00;98815.45;179377;1263;46159;-67
2023/12/23 19:02:49;;;;;;;5.40;3.20;;;;;;;3.17;100.00;98824.20;179475;1263;57334;-65
2023/12/23 19:06:53;;;;;;;7.10;4.20;;;;;;;3.23;100.00;98832.17;179313;1263;45189;-66
2023/12/23 19:10:57;;;;;;;4.90;3.70;;;;;;;3.26;100.00;98841.77;179375;1264;45755;-66
2023/12/23 19:15:05;;;;;;;5.30;3.40;;;;;;;3.27;100.00;98833.56;179569;1264;46020;-65